Time;durP1;ratioP1;P1;durP2;ratioP2;P2;SDS_P1;SDS_P2;PMS_P1;PMS_P2;Temp;Humidity;BMP_temperature;BMP_pressure;BME280_temperature;BME280_humidity;BME280_pressure;Samples;Min_cycle;Max_cycle;Signal;HPM_P1;HPM_P2
2022/04/07 00:01:20;;;;;;;12.45;2.53;;;10.30;99.90;;;;;;5072569;28;20098;-73
2022/04/07 00:03:46;;;;;;;13.20;2.00;;;10.30;99.90;;;;;;5072629;28;20021;-73
2022/04/07 00:06:12;;;;;;;9.80;2.15;;;10.30;99.90;;;;;;5071932;28;20446;-75
2022/04/07 00:08:39;;;;;;;8.23;1.90;;;10.30;99.90;;;;;;5072577;28;20512;-74
2022/04/07 00:11:06;;;;;;;7.70;2.50;;;10.30;99.90;;;;;;5072771;28;20115;-74
2022/04/07 00:13:32;;;;;;;10.98;2.60;;;10.30;99.90;;;;;;5071323;28;20041;-74
2022/04/07 00:15:59;;;;;;;9.98;2.53;;;10.30;99.90;;;;;;5072598;28;20039;-75
2022/04/07 00:18:25;;;;;;;14.10;2.08;;;10.30;99.90;;;;;;5072225;28;20503;-75
2022/04/07 00:20:52;;;;;;;9.32;1.90;;;10.30;99.90;;;;;;5071952;28;20024;-74
2022/04/07 00:23:19;;;;;;;7.75;2.28;;;10.30;99.90;;;;;;5072223;28;20394;-74
2022/04/07 00:25:44;;;;;;;12.32;2.47;;;10.30;99.90;;;;;;5072578;28;20029;-73
2022/04/07 00:28:10;;;;;;;5.68;1.73;;;10.30;99.90;;;;;;5071346;28;20040;-75
2022/04/07 00:30:37;;;;;;;12.25;1.85;;;10.30;99.90;;;;;;5072437;28;20419;-75
2022/04/07 00:33:04;;;;;;;16.80;3.22;;;10.30;99.90;;;;;;5072271;28;20064;-75
2022/04/07 00:35:30;;;;;;;20.40;3.40;;;10.30;99.90;;;;;;5071725;28;20081;-75
2022/04/07 00:37:55;;;;;;;9.40;2.08;;;10.30;99.90;;;;;;5072288;28;20024;-75
2022/04/07 00:40:21;;;;;;;10.20;2.05;;;10.30;99.90;;;;;;5071405;28;20074;-75
2022/04/07 00:42:51;;;;;;;8.82;1.75;;;10.40;99.90;;;;;;5072333;28;20027;-75
2022/04/07 00:45:18;;;;;;;11.23;1.80;;;10.40;99.90;;;;;;5072089;28;20024;-74
2022/04/07 00:47:46;;;;;;;16.30;2.72;;;10.40;99.90;;;;;;5071566;28;20068;-74
2022/04/07 00:50:13;;;;;;;7.88;2.00;;;10.40;99.90;;;;;;5072003;28;20044;-73
2022/04/07 00:52:43;;;;;;;11.88;2.42;;;10.30;99.90;;;;;;5072217;28;20033;-73
2022/04/07 00:55:13;;;;;;;13.35;3.15;;;10.30;99.90;;;;;;5071285;28;20039;-73
2022/04/07 00:57:39;;;;;;;15.45;3.75;;;10.30;99.90;;;;;;5072135;28;20116;-74
2022/04/07 01:00:07;;;;;;;16.83;2.88;;;10.30;99.90;;;;;;5071890;28;20029;-73
2022/04/07 01:02:32;;;;;;;8.32;2.08;;;10.20;99.90;;;;;;5070896;28;20029;-73
2022/04/07 01:04:58;;;;;;;14.10;2.63;;;10.20;99.90;;;;;;5072202;28;20376;-73
2022/04/07 01:07:25;;;;;;;17.63;3.00;;;10.20;99.90;;;;;;5071657;28;20047;-74
2022/04/07 01:09:51;;;;;;;12.82;2.92;;;10.20;99.90;;;;;;5070867;28;20052;-73
2022/04/07 01:12:17;;;;;;;14.73;3.08;;;10.20;99.90;;;;;;5071622;28;20039;-74
2022/04/07 01:15:00;;;;;;;9.77;2.30;;;10.10;99.90;;;;;;5071967;28;20016;-73
2022/04/07 01:17:27;;;;;;;9.77;2.35;;;10.10;99.90;;;;;;5071033;28;20044;-74
2022/04/07 01:19:53;;;;;;;15.15;2.95;;;10.00;99.90;;;;;;5071973;28;20039;-73
2022/04/07 01:22:20;;;;;;;13.38;3.53;;;10.00;99.90;;;;;;5071665;28;20104;-74
2022/04/07 01:24:47;;;;;;;11.90;2.00;;;10.00;99.90;;;;;;5075138;28;20021;-73
2022/04/07 01:27:13;;;;;;;11.30;2.78;;;10.00;99.90;;;;;;5075420;28;20028;-74
2022/04/07 01:29:39;;;;;;;20.40;3.33;;;9.90;99.90;;;;;;5075435;28;20074;-74
2022/04/07 01:32:15;;;;;;;16.30;2.72;;;9.90;99.90;;;;;;5075980;28;20529;-74
2022/04/07 01:34:41;;;;;;;14.82;2.65;;;9.90;99.90;;;;;;5075673;28;20068;-74
2022/04/07 01:37:08;;;;;;;11.40;2.70;;;9.90;99.90;;;;;;5074811;28;20499;-73
2022/04/07 01:39:36;;;;;;;22.67;2.90;;;9.90;99.90;;;;;;5075638;28;20024;-73
2022/04/07 01:42:02;;;;;;;19.55;2.78;;;9.90;99.90;;;;;;5075708;28;20021;-73
2022/04/07 01:44:30;;;;;;;20.17;3.45;;;9.90;99.90;;;;;;5075037;28;20025;-73
2022/04/07 01:46:56;;;;;;;23.80;4.45;;;9.90;99.90;;;;;;5075539;28;20030;-75
2022/04/07 01:49:23;;;;;;;14.32;2.72;;;9.90;99.90;;;;;;5075251;28;20460;-73
2022/04/07 01:51:49;;;;;;;17.08;2.33;;;9.90;99.90;;;;;;5074742;28;20040;-74
2022/04/07 01:54:15;;;;;;;15.45;2.15;;;10.00;99.90;;;;;;5075032;28;20033;-73
2022/04/07 01:56:42;;;;;;;19.77;3.47;;;10.00;99.90;;;;;;5075559;28;20468;-74
2022/04/07 01:59:08;;;;;;;24.65;4.38;;;10.10;99.90;;;;;;5074752;28;20033;-75
2022/04/07 02:01:34;;;;;;;16.85;3.00;;;10.10;99.90;;;;;;5092484;28;20024;-73
2022/04/07 02:04:00;;;;;;;14.23;2.45;;;10.10;99.90;;;;;;5095399;28;20039;-74
2022/04/07 02:06:26;;;;;;;15.32;2.22;;;10.10;99.90;;;;;;5094499;28;20031;-73
2022/04/07 02:08:51;;;;;;;16.70;2.47;;;10.10;99.90;;;;;;5094998;28;20044;-74
2022/04/07 02:11:17;;;;;;;18.90;2.67;;;10.10;99.90;;;;;;5095161;28;20039;-75
2022/04/07 02:13:43;;;;;;;15.55;2.83;;;10.10;99.90;;;;;;5094513;28;20119;-75
2022/04/07 02:16:10;;;;;;;14.00;3.42;;;10.10;99.90;;;;;;5095137;28;20077;-74
2022/04/07 02:18:37;;;;;;;19.77;2.92;;;10.10;99.90;;;;;;5094982;28;20073;-74
2022/04/07 02:21:03;;;;;;;18.45;4.22;;;10.10;99.90;;;;;;5095224;28;20107;-75
2022/04/07 02:23:29;;;;;;;15.10;3.17;;;10.10;99.90;;;;;;5094724;28;20087;-75
2022/04/07 02:25:55;;;;;;;14.23;2.55;;;10.20;99.90;;;;;;5094582;28;20028;-74
2022/04/07 02:28:21;;;;;;;13.23;2.70;;;10.20;99.90;;;;;;5094855;28;20031;-75
2022/04/07 02:30:47;;;;;;;23.15;3.00;;;10.20;99.90;;;;;;5095025;28;20027;-74
2022/04/07 02:33:13;;;;;;;15.40;3.28;;;11.10;99.90;;;;;;5093850;28;20035;-74
2022/04/07 02:35:39;;;;;;;21.33;3.20;;;10.20;99.90;;;;;;5095148;28;20016;-74
2022/04/07 02:38:04;;;;;;;25.70;4.90;;;10.10;99.90;;;;;;5094720;28;20020;-74
2022/04/07 02:40:30;;;;;;;20.45;3.08;;;10.10;99.90;;;;;;5093596;28;20104;-74
2022/04/07 02:42:56;;;;;;;14.50;2.60;;;10.10;99.90;;;;;;5094757;28;20020;-74
2022/04/07 02:45:21;;;;;;;28.27;5.18;;;10.10;99.90;;;;;;5094492;28;20031;-73
2022/04/07 02:47:47;;;;;;;22.10;3.38;;;10.10;99.90;;;;;;5094079;28;20407;-73
2022/04/07 02:50:12;;;;;;;21.45;3.33;;;10.10;99.90;;;;;;5094285;28;20115;-74
2022/04/07 02:52:38;;;;;;;25.55;4.75;;;10.10;99.90;;;;;;5094518;28;20039;-74
2022/04/07 02:55:04;;;;;;;24.02;4.28;;;10.20;99.90;;;;;;5094009;28;20055;-73
2022/04/07 02:57:33;;;;;;;16.92;2.97;;;10.20;99.90;;;;;;5093990;28;20027;-72
2022/04/07 02:59:59;;;;;;;18.17;3.00;;;10.20;99.90;;;;;;5094569;28;20098;-73
2022/04/07 03:02:25;;;;;;;21.73;3.45;;;10.10;99.90;;;;;;5093400;28;20095;-74
2022/04/07 03:04:50;;;;;;;24.40;3.78;;;10.20;99.90;;;;;;5094261;28;20430;-73
2022/04/07 03:07:16;;;;;;;18.92;3.75;;;10.20;99.90;;;;;;5093883;28;20024;-74
2022/04/07 03:09:42;;;;;;;17.75;3.72;;;10.20;99.90;;;;;;5093387;28;20059;-74
2022/04/07 03:12:08;;;;;;;29.65;4.28;;;10.20;99.90;;;;;;5093999;28;20028;-74
2022/04/07 03:14:34;;;;;;;21.38;4.32;;;10.20;99.90;;;;;;5094291;28;20020;-74
2022/04/07 03:16:59;;;;;;;17.98;3.55;;;10.30;99.90;;;;;;5093289;28;20468;-74
2022/04/07 03:19:25;;;;;;;17.50;2.58;;;10.30;99.90;;;;;;5093736;28;20024;-74
2022/04/07 03:21:50;;;;;;;13.45;2.90;;;10.20;99.90;;;;;;5094478;28;20028;-74
2022/04/07 03:24:16;;;;;;;23.25;3.25;;;10.30;99.90;;;;;;5092951;28;20365;-74
2022/04/07 03:26:42;;;;;;;22.10;3.15;;;10.30;99.90;;;;;;5094142;28;20380;-73
2022/04/07 03:29:07;;;;;;;25.98;4.07;;;10.30;99.90;;;;;;5092889;28;20067;-74
2022/04/07 03:31:33;;;;;;;19.70;3.20;;;10.20;99.90;;;;;;5093836;28;20044;-73
2022/04/07 03:33:59;;;;;;;26.67;4.05;;;10.20;99.90;;;;;;5093666;28;20476;-74
2022/04/07 03:36:24;;;;;;;20.40;5.43;;;10.10;99.90;;;;;;5092726;28;20024;-74
2022/04/07 03:38:51;;;;;;;23.70;4.28;;;10.10;99.90;;;;;;5093903;28;20115;-73
2022/04/07 03:41:17;;;;;;;28.48;4.00;;;10.10;99.90;;;;;;5093391;28;20060;-73
2022/04/07 03:43:43;;;;;;;24.15;3.75;;;10.00;99.90;;;;;;5092951;28;20031;-74
2022/04/07 03:46:10;;;;;;;24.95;3.70;;;10.00;99.90;;;;;;5092996;28;20024;-73
2022/04/07 03:48:36;;;;;;;28.50;5.43;;;10.00;99.90;;;;;;5092797;28;20028;-74
2022/04/07 03:51:01;;;;;;;19.95;3.35;;;10.00;99.90;;;;;;5092862;28;20020;-74
2022/04/07 03:53:27;;;;;;;24.08;3.45;;;10.00;99.90;;;;;;5093055;28;20040;-74
2022/04/07 03:55:53;;;;;;;17.95;3.40;;;10.00;99.90;;;;;;5093289;28;20058;-74
2022/04/07 03:58:21;;;;;;;24.27;4.22;;;10.00;99.90;;;;;;5092427;28;20031;-74
2022/04/07 04:00:47;;;;;;;17.02;3.08;;;10.00;99.90;;;;;;5093300;28;20031;-73
2022/04/07 04:03:13;;;;;;;16.65;2.75;;;10.00;99.90;;;;;;5092784;28;20028;-74
2022/04/07 04:05:41;;;;;;;16.13;3.83;;;9.90;99.90;;;;;;5092817;28;20035;-75
2022/04/07 04:08:14;;;;;;;9.23;2.28;;;9.90;99.90;;;;;;5089798;27;20389;-74
2022/04/07 04:10:39;;;;;;;21.58;2.90;;;9.90;99.90;;;;;;5089833;28;20073;-74
2022/04/07 04:13:05;;;;;;;15.65;2.75;;;9.90;99.90;;;;;;5089346;28;20086;-75
2022/04/07 04:15:30;;;;;;;18.08;3.33;;;9.90;99.90;;;;;;5089853;28;20020;-74
2022/04/07 04:17:56;;;;;;;19.10;3.17;;;9.90;99.90;;;;;;5089697;28;20028;-74
2022/04/07 04:20:22;;;;;;;11.93;2.13;;;9.90;99.90;;;;;;5088684;28;20032;-74
2022/04/07 04:22:47;;;;;;;9.43;2.25;;;10.10;99.90;;;;;;5089398;28;20460;-73
2022/04/07 04:25:13;;;;;;;9.25;1.92;;;10.00;99.90;;;;;;5088580;28;20029;-74
2022/04/07 04:27:40;;;;;;;13.18;2.63;;;10.00;99.90;;;;;;5089526;28;20024;-73
2022/04/07 04:30:07;;;;;;;14.38;2.28;;;10.00;99.90;;;;;;5089535;28;20032;-75
2022/04/07 04:32:32;;;;;;;19.83;2.90;;;10.00;99.90;;;;;;5088464;28;20033;-74
2022/04/07 04:34:58;;;;;;;12.50;2.00;;;10.10;99.90;;;;;;5089419;28;20079;-74
2022/04/07 04:37:26;;;;;;;11.13;2.28;;;10.00;99.90;;;;;;5089108;28;20028;-74
2022/04/07 04:39:53;;;;;;;11.18;2.53;;;10.00;99.90;;;;;;5088794;28;20025;-75
2022/04/07 04:42:19;;;;;;;10.43;3.25;;;10.00;99.90;;;;;;5088724;28;20113;-75
2022/04/07 04:44:46;;;;;;;10.48;1.60;;;10.60;99.90;;;;;;5089040;28;20028;-75
2022/04/07 04:47:12;;;;;;;9.48;1.85;;;10.00;99.90;;;;;;5088023;28;20036;-74
2022/04/07 04:49:41;;;;;;;8.48;1.92;;;10.00;99.90;;;;;;5088904;28;20025;-74
2022/04/07 04:52:08;;;;;;;13.85;2.40;;;10.00;99.90;;;;;;5088947;28;20056;-74
2022/04/07 04:54:33;;;;;;;5.95;2.10;;;10.00;99.90;;;;;;5088285;28;20020;-74
2022/04/07 04:56:59;;;;;;;10.50;2.47;;;10.00;99.90;;;;;;5088968;28;20032;-74
2022/04/07 04:59:24;;;;;;;11.02;2.15;;;10.00;99.90;;;;;;5088472;28;20020;-74
2022/04/07 05:01:50;;;;;;;8.50;1.85;;;9.90;99.90;;;;;;5087823;28;20036;-74
2022/04/07 05:04:15;;;;;;;8.60;1.58;;;9.90;99.90;;;;;;5088605;28;20026;-75
2022/04/07 05:06:41;;;;;;;8.00;1.35;;;9.90;99.90;;;;;;5088656;28;20040;-74
2022/04/07 05:09:06;;;;;;;11.48;2.20;;;9.90;99.90;;;;;;5087721;28;20634;-75
2022/04/07 05:11:33;;;;;;;3.97;1.60;;;9.90;99.90;;;;;;5088396;28;20107;-75
2022/04/07 05:13:59;;;;;;;8.65;1.88;;;9.80;99.90;;;;;;5088552;28;20024;-75
2022/04/07 05:16:25;;;;;;;6.63;1.65;;;9.80;99.90;;;;;;5087303;28;20029;-74
2022/04/07 05:18:50;;;;;;;4.35;1.63;;;9.80;99.90;;;;;;5078838;28;20052;-75
2022/04/07 05:21:16;;;;;;;9.05;1.65;;;9.80;99.90;;;;;;5074401;28;20029;-74
2022/04/07 05:23:42;;;;;;;6.78;2.35;;;9.70;99.90;;;;;;5073968;28;20024;-74
2022/04/07 05:26:07;;;;;;;15.02;3.13;;;9.70;99.90;;;;;;5074353;28;20036;-74
2022/04/07 05:28:33;;;;;;;7.07;2.25;;;9.70;99.90;;;;;;5073921;28;20507;-73
2022/04/07 05:30:58;;;;;;;3.67;1.67;;;9.70;99.90;;;;;;5074620;28;20012;-74
2022/04/07 05:33:25;;;;;;;9.05;2.67;;;9.70;99.90;;;;;;5068874;28;20489;-74
2022/04/07 05:35:51;;;;;;;8.15;2.25;;;9.70;99.90;;;;;;5052407;28;20025;-73
2022/04/07 05:38:16;;;;;;;10.50;2.70;;;9.70;99.90;;;;;;5052909;28;20025;-74
2022/04/07 05:40:43;;;;;;;9.90;2.25;;;9.70;99.90;;;;;;5053234;28;20029;-73
2022/04/07 05:43:08;;;;;;;5.25;2.25;;;9.70;99.90;;;;;;5051796;28;20082;-74
2022/04/07 05:45:34;;;;;;;6.85;2.65;;;9.70;99.90;;;;;;5052572;28;20436;-73
2022/04/07 05:48:00;;;;;;;3.90;3.00;;;9.70;99.90;;;;;;5053087;28;20120;-72
2022/04/07 05:50:25;;;;;;;6.68;2.97;;;9.70;99.90;;;;;;5051960;28;20028;-71
2022/04/07 05:52:51;;;;;;;8.55;2.50;;;9.70;99.90;;;;;;5052626;28;20060;-74
2022/04/07 05:55:16;;;;;;;4.18;2.40;;;9.70;99.90;;;;;;5052371;28;20028;-72
2022/04/07 05:57:43;;;;;;;5.25;2.33;;;9.70;99.90;;;;;;5052143;28;20027;-74
2022/04/07 06:00:13;;;;;;;2.30;2.10;;;9.70;99.90;;;;;;5053671;28;20057;-72
2022/04/07 06:02:42;;;;;;;8.10;0.73;;;9.70;99.90;;;;;;5052782;28;20029;-72
2022/04/07 06:05:09;;;;;;;3.65;0.95;;;9.10;99.90;;;;;;5051365;28;20435;-72
2022/04/07 06:07:35;;;;;;;7.20;0.95;;;8.10;99.90;;;;;;5057607;28;20124;-72
2022/04/07 06:10:01;;;;;;;5.93;1.73;;;7.40;99.90;;;;;;5072494;28;20419;-73
2022/04/07 06:12:27;;;;;;;3.53;0.80;;;7.00;99.90;;;;;;5071594;28;20031;-73
2022/04/07 06:14:53;;;;;;;5.95;0.85;;;6.70;99.90;;;;;;5072892;28;20021;-73
2022/04/07 06:17:18;;;;;;;5.97;1.35;;;6.50;99.90;;;;;;5072082;28;20043;-73
2022/04/07 06:19:44;;;;;;;3.20;0.68;;;6.50;99.90;;;;;;5071829;28;20017;-73
2022/04/07 06:22:11;;;;;;;4.20;0.80;;;6.50;99.90;;;;;;5072141;28;20025;-73
2022/04/07 06:24:37;;;;;;;5.35;0.95;;;6.50;99.90;;;;;;5072408;28;20454;-73
2022/04/07 06:27:03;;;;;;;6.65;0.90;;;6.50;99.90;;;;;;5071440;28;20040;-73
2022/04/07 06:29:28;;;;;;;8.82;1.13;;;6.50;99.90;;;;;;5071141;28;20041;-72
2022/04/07 06:31:54;;;;;;;9.40;1.10;;;6.50;99.90;;;;;;5071282;28;20055;-72
2022/04/07 06:34:20;;;;;;;11.90;3.40;;;6.50;99.90;;;;;;5071679;28;20028;-72
2022/04/07 06:36:47;;;;;;;6.32;1.20;;;6.50;99.90;;;;;;5059094;28;20029;-71
2022/04/07 06:39:13;;;;;;;16.42;1.48;;;6.50;99.90;;;;;;5050143;28;20495;-72
2022/04/07 06:41:39;;;;;;;10.98;1.70;;;6.60;99.90;;;;;;5051041;28;20021;-72
2022/04/07 06:44:04;;;;;;;6.18;1.30;;;6.60;99.90;;;;;;5051407;28;20040;-72
2022/04/07 06:46:32;;;;;;;11.23;1.40;;;6.60;99.90;;;;;;5060861;28;20021;-72
2022/04/07 06:48:58;;;;;;;15.45;2.53;;;6.60;99.90;;;;;;5068894;28;20086;-72
2022/04/07 06:51:24;;;;;;;3.63;0.68;;;6.70;99.90;;;;;;5064702;28;20111;-72
2022/04/07 06:53:49;;;;;;;8.93;1.42;;;6.60;99.90;;;;;;5052509;28;20021;-71
2022/04/07 06:56:15;;;;;;;7.18;0.82;;;6.70;99.90;;;;;;5065063;28;20496;-72
2022/04/07 06:58:40;;;;;;;5.30;1.75;;;6.70;99.90;;;;;;5071497;28;20017;-72
2022/04/07 07:01:06;;;;;;;5.85;0.65;;;6.80;99.90;;;;;;5067902;28;20085;-71
2022/04/07 07:03:32;;;;;;;7.60;1.27;;;6.80;99.90;;;;;;5071285;28;20021;-71
2022/04/07 07:05:58;;;;;;;3.20;0.77;;;6.80;99.90;;;;;;5069304;28;20079;-71
2022/04/07 07:08:24;;;;;;;3.75;0.73;;;6.80;99.90;;;;;;5061882;28;20097;-72
2022/04/07 07:10:53;;;;;;;1.35;0.30;;;6.80;99.90;;;;;;5072330;28;20438;-72
2022/04/07 07:13:29;;;;;;;2.67;1.10;;;6.80;99.90;;;;;;5072610;28;20115;-71
2022/04/07 07:15:55;;;;;;;3.35;0.82;;;6.80;99.90;;;;;;5072777;28;20017;-72
2022/04/07 07:18:21;;;;;;;6.95;0.90;;;6.80;99.90;;;;;;5066036;28;20029;-74
2022/04/07 07:20:47;;;;;;;3.60;0.80;;;6.90;99.90;;;;;;5052183;28;20021;-72
2022/04/07 07:23:13;;;;;;;3.63;0.77;;;6.90;99.90;;;;;;5053637;28;20542;-72
2022/04/07 07:25:38;;;;;;;13.88;0.98;;;7.00;99.90;;;;;;5051336;28;20021;-72
2022/04/07 07:28:05;;;;;;;2.00;0.75;;;7.00;99.90;;;;;;5051777;28;20168;-74
2022/04/07 07:30:31;;;;;;;2.97;0.40;;;7.10;99.90;;;;;;5052164;28;20381;-73
2022/04/07 07:32:58;;;;;;;4.85;0.90;;;7.10;99.90;;;;;;5052537;28;20024;-74
2022/04/07 07:35:24;;;;;;;3.20;1.25;;;7.20;99.90;;;;;;5051286;28;20032;-74
2022/04/07 07:37:51;;;;;;;4.28;0.98;;;7.20;99.90;;;;;;5056979;28;20025;-73
2022/04/07 07:40:21;;;;;;;4.93;0.88;;;7.20;99.90;;;;;;5069985;28;20032;-72
2022/04/07 07:42:47;;;;;;;5.40;1.52;;;7.20;99.90;;;;;;5069802;28;20051;-73
2022/04/07 07:45:14;;;;;;;2.28;1.15;;;7.30;99.90;;;;;;5070087;28;20086;-74
2022/04/07 07:47:40;;;;;;;4.40;1.73;;;8.50;99.90;;;;;;5070203;28;20090;-72
2022/04/07 07:50:06;;;;;;;3.92;0.93;;;7.50;99.90;;;;;;5069732;28;20052;-73
2022/04/07 07:52:32;;;;;;;5.15;0.88;;;7.60;99.90;;;;;;5071930;28;20035;-73
2022/04/07 07:54:58;;;;;;;4.60;0.93;;;7.70;99.90;;;;;;5056775;28;20021;-73
2022/04/07 07:57:24;;;;;;;5.20;1.23;;;7.70;99.90;;;;;;5057260;28;20492;-76
2022/04/07 07:59:51;;;;;;;6.50;0.75;;;7.80;99.90;;;;;;5071703;28;20472;-73
2022/04/07 08:02:19;;;;;;;3.25;0.85;;;7.80;99.90;;;;;;5071313;28;20025;-72
2022/04/07 08:04:46;;;;;;;10.52;0.77;;;7.90;99.90;;;;;;5070586;28;20024;-73
2022/04/07 08:07:11;;;;;;;5.72;1.13;;;8.00;99.90;;;;;;5071032;28;20045;-79
2022/04/07 08:09:37;;;;;;;4.35;1.13;;;8.10;99.90;;;;;;5072122;28;20513;-75
2022/04/07 08:12:03;;;;;;;5.47;0.93;;;8.10;99.90;;;;;;5071174;28;20107;-73
2022/04/07 08:14:30;;;;;;;2.78;0.85;;;8.10;99.90;;;;;;5071741;28;20044;-73
2022/04/07 08:16:56;;;;;;;6.25;1.08;;;8.10;99.90;;;;;;5072045;28;20401;-73
2022/04/07 08:19:22;;;;;;;4.80;2.03;;;8.10;99.90;;;;;;5071197;28;20029;-74
2022/04/07 08:21:48;;;;;;;4.32;0.65;;;8.20;99.90;;;;;;5072029;28;20020;-74
2022/04/07 08:24:16;;;;;;;7.38;1.15;;;8.20;99.90;;;;;;5062281;28;20028;-75
2022/04/07 08:26:42;;;;;;;5.53;0.90;;;8.20;99.90;;;;;;5054649;28;20124;-74
2022/04/07 08:29:08;;;;;;;6.40;1.45;;;8.30;99.90;;;;;;5051834;28;20021;-75
2022/04/07 08:31:34;;;;;;;8.80;1.23;;;8.40;99.90;;;;;;5062059;28;20078;-74
2022/04/07 08:33:59;;;;;;;5.15;0.90;;;8.50;99.90;;;;;;5070000;28;20107;-74
2022/04/07 08:36:25;;;;;;;5.13;0.57;;;8.60;99.90;;;;;;5073205;28;20020;-75
2022/04/07 08:38:51;;;;;;;5.57;0.65;;;8.80;99.90;;;;;;5069939;28;20448;-74
2022/04/07 08:41:18;;;;;;;4.00;0.77;;;9.00;99.90;;;;;;5068607;28;20032;-74
2022/04/07 08:43:43;;;;;;;5.35;1.00;;;9.10;99.90;;;;;;5070919;28;20020;-74
2022/04/07 08:46:13;;;;;;;3.97;0.60;;;9.20;99.90;;;;;;5069246;28;20175;-75
2022/04/07 08:48:43;;;;;;;4.93;0.93;;;9.30;99.90;;;;;;5058913;28;20040;-75
2022/04/07 08:51:10;;;;;;;7.47;1.02;;;9.40;99.90;;;;;;5050954;28;20021;-74
2022/04/07 08:53:38;;;;;;;1.80;0.57;;;9.50;99.90;;;;;;5069162;28;20484;-73
2022/04/07 08:56:05;;;;;;;4.97;1.00;;;9.60;99.90;;;;;;5075588;28;20024;-74
2022/04/07 08:58:31;;;;;;;5.10;1.00;;;9.70;99.90;;;;;;5075067;28;20032;-74
2022/04/07 09:00:59;;;;;;;7.70;1.20;;;9.80;99.90;;;;;;5074680;28;20093;-74
2022/04/07 09:03:25;;;;;;;7.00;1.65;;;9.80;99.90;;;;;;5074917;28;20082;-75
2022/04/07 09:05:53;;;;;;;3.28;0.73;;;9.90;99.90;;;;;;5075326;28;20024;-74
2022/04/07 09:08:33;;;;;;;7.68;1.23;;;10.00;99.90;;;;;;5074233;28;20040;-75
2022/04/07 09:11:00;;;;;;;8.38;0.88;;;10.00;99.90;;;;;;5075236;28;20025;-74
2022/04/07 09:13:47;;;;;;;5.55;1.42;;;10.10;99.90;;;;;;5074726;28;20044;-74
2022/04/07 09:16:15;;;;;;;5.80;1.33;;;10.20;99.90;;;;;;5075008;28;20086;-77
2022/04/07 09:18:42;;;;;;;7.28;0.93;;;10.30;99.90;;;;;;5075225;28;20056;-74
2022/04/07 09:21:27;;;;;;;8.80;1.88;;;10.30;99.90;;;;;;5074147;28;20083;-74
2022/04/07 09:23:54;;;;;;;4.43;1.35;;;10.30;99.90;;;;;;5075029;28;20549;-75
2022/04/07 09:26:20;;;;;;;6.32;1.15;;;10.40;99.90;;;;;;5074467;28;20126;-75
2022/04/07 09:28:46;;;;;;;3.40;0.77;;;10.50;99.90;;;;;;5074378;28;20032;-75
2022/04/07 09:31:14;;;;;;;0.90;0.60;;;10.50;99.90;;;;;;5074637;28;20044;-76
2022/04/07 09:33:40;;;;;;;7.68;1.77;;;10.60;99.90;;;;;;5075172;28;20064;-74
2022/04/07 09:36:08;;;;;;;9.38;2.08;;;10.50;99.90;;;;;;5073950;28;20059;-75
2022/04/07 09:38:35;;;;;;;8.95;1.20;;;10.60;99.90;;;;;;5074789;28;20028;-76
2022/04/07 09:41:14;;;;;;;4.38;1.42;;;10.50;99.90;;;;;;5069712;28;20041;-75
2022/04/07 09:43:47;;;;;;;5.97;1.40;;;10.50;99.90;;;;;;5073202;28;20074;-75
2022/04/07 09:46:15;;;;;;;10.10;1.10;;;10.40;99.90;;;;;;5073788;28;20048;-75
2022/04/07 09:48:57;;;;;;;5.78;1.20;;;10.40;99.90;;;;;;5074028;28;20115;-75
2022/04/07 09:51:23;;;;;;;6.00;1.27;;;10.30;99.90;;;;;;5063201;28;20057;-75
2022/04/07 09:53:55;;;;;;;11.82;1.52;;;10.50;99.90;;;;;;5054014;28;20053;-76
2022/04/07 09:56:21;;;;;;;5.93;1.42;;;10.30;99.90;;;;;;5053268;28;20029;-75
2022/04/07 09:58:48;;;;;;;3.60;1.48;;;10.20;99.90;;;;;;5064973;28;20107;-75
2022/04/07 10:01:13;;;;;;;7.07;1.35;;;10.20;99.90;;;;;;5073233;28;20025;-74
2022/04/07 10:03:40;;;;;;;9.77;1.65;;;10.20;99.90;;;;;;5067552;28;20024;-75
2022/04/07 10:06:07;;;;;;;18.33;3.75;;;10.20;99.90;;;;;;5073654;28;20055;-75
2022/04/07 10:08:36;;;;;;;18.25;2.08;;;10.10;99.90;;;;;;5065952;28;20024;-73
2022/04/07 10:11:03;;;;;;;8.55;1.83;;;10.10;99.90;;;;;;5073066;28;20423;-73
2022/04/07 10:13:30;;;;;;;8.50;1.92;;;10.10;99.90;;;;;;5073821;28;20392;-74
2022/04/07 10:15:57;;;;;;;7.68;2.10;;;10.00;99.90;;;;;;5074087;28;20032;-75
2022/04/07 10:18:29;;;;;;;7.18;1.27;;;10.10;99.90;;;;;;5072890;28;20024;-73
2022/04/07 10:20:58;;;;;;;16.00;2.47;;;10.00;99.90;;;;;;5074222;28;20024;-73
2022/04/07 10:23:27;;;;;;;13.57;1.63;;;10.00;99.90;;;;;;5073633;28;20021;-73
2022/04/07 10:25:54;;;;;;;17.02;3.38;;;10.00;99.90;;;;;;5062636;28;20031;-73
2022/04/07 10:28:20;;;;;;;10.23;1.60;;;10.00;99.90;;;;;;5054919;28;20114;-71
2022/04/07 10:30:51;;;;;;;11.80;1.70;;;10.10;99.90;;;;;;5066112;28;20083;-73
2022/04/07 10:34:04;;;;;;;12.05;1.92;;;10.20;99.90;;;;;;5066865;28;20504;-74
2022/04/07 10:36:36;;;;;;;9.52;1.92;;;10.20;99.90;;;;;;5045882;28;20587;-73
2022/04/07 10:39:13;;;;;;;7.43;1.20;;;10.20;99.90;;;;;;5046707;28;20492;-73
2022/04/07 10:41:38;;;;;;;6.97;2.05;;;10.20;99.90;;;;;;5060585;28;20036;-73
2022/04/07 10:44:14;;;;;;;8.50;1.38;;;10.20;99.90;;;;;;5053419;28;20021;-74
2022/04/07 10:46:39;;;;;;;9.18;1.48;;;10.30;99.90;;;;;;5068419;28;20044;-73
2022/04/07 10:49:11;;;;;;;12.75;1.38;;;10.20;99.90;;;;;;5071544;28;20032;-73
2022/04/07 10:51:51;;;;;;;11.15;1.50;;;10.20;99.90;;;;;;5072491;28;20104;-73
2022/04/07 10:54:17;;;;;;;10.10;2.38;;;10.30;99.90;;;;;;5072783;28;20040;-74
2022/04/07 10:56:50;;;;;;;5.10;1.83;;;10.40;99.90;;;;;;5073337;28;20036;-73
2022/04/07 10:59:22;;;;;;;9.88;1.48;;;10.40;99.90;;;;;;5072147;28;20404;-73
2022/04/07 11:01:57;;;;;;;11.40;1.83;;;10.50;99.90;;;;;;5073115;28;20037;-73
2022/04/07 11:04:23;;;;;;;11.95;3.03;;;10.50;99.90;;;;;;5072543;28;20021;-73
2022/04/07 11:07:22;;;;;;;11.88;1.85;;;10.50;99.90;;;;;;5072131;28;20496;-74
2022/04/07 11:10:03;;;;;;;14.13;2.33;;;10.50;99.90;;;;;;5050403;28;20108;-73
2022/04/07 11:12:37;;;;;;;13.40;2.13;;;10.60;99.90;;;;;;5072504;28;20107;-73
2022/04/07 11:15:03;;;;;;;17.38;2.58;;;10.70;99.90;;;;;;5072455;28;20120;-72
2022/04/07 11:17:34;;;;;;;11.93;2.00;;;10.90;99.90;;;;;;5072039;28;20539;-75
2022/04/07 11:20:05;;;;;;;6.22;1.55;;;11.00;99.90;;;;;;5072650;28;20037;-73
2022/04/07 11:23:04;;;;;;;12.10;2.08;;;11.00;99.90;;;;;;5071585;28;20048;-73
2022/04/07 11:25:31;;;;;;;12.55;2.40;;;11.00;99.90;;;;;;5049524;28;20120;-74
2022/04/07 11:28:15;;;;;;;7.00;2.10;;;10.90;99.90;;;;;;5071909;28;20041;-75
2022/04/07 11:31:04;;;;;;;7.60;1.70;;;11.00;99.90;;;;;;5069272;28;20031;-73
2022/04/07 11:33:30;;;;;;;7.57;1.33;;;11.00;99.90;;;;;;5058055;28;20075;-72
2022/04/07 11:36:02;;;;;;;8.43;2.08;;;11.00;99.90;;;;;;5064554;28;20027;-73
2022/04/07 11:38:29;;;;;;;11.13;1.70;;;11.00;99.90;;;;;;5052132;28;20028;-72
2022/04/07 11:41:08;;;;;;;12.45;2.30;;;10.90;99.90;;;;;;5052409;28;20032;-74
2022/04/07 11:43:36;;;;;;;13.25;1.70;;;11.00;99.90;;;;;;5051575;28;20025;-73
2022/04/07 11:46:02;;;;;;;7.40;1.48;;;11.10;99.90;;;;;;5052059;28;20381;-73
2022/04/07 11:48:33;;;;;;;11.15;2.03;;;11.10;99.90;;;;;;5051184;28;20029;-72
2022/04/07 11:51:01;;;;;;;10.75;2.03;;;11.10;99.90;;;;;;5052243;28;20493;-73
2022/04/07 11:53:27;;;;;;;12.10;2.03;;;11.20;99.90;;;;;;5051928;28;20170;-73
2022/04/07 11:55:54;;;;;;;14.10;3.08;;;11.20;99.90;;;;;;5051572;28;20045;-74
2022/04/07 11:58:20;;;;;;;13.23;1.88;;;11.20;99.90;;;;;;5051704;28;20477;-73
2022/04/07 12:00:45;;;;;;;8.63;1.65;;;11.10;99.90;;;;;;5050947;28;20055;-73
2022/04/07 12:03:11;;;;;;;16.45;2.13;;;11.10;99.90;;;;;;5049593;28;20461;-73
2022/04/07 12:05:38;;;;;;;10.80;2.28;;;11.10;99.90;;;;;;5050879;28;20040;-73
2022/04/07 12:08:14;;;;;;;7.90;2.38;;;11.00;99.90;;;;;;5051762;28;20045;-74
2022/04/07 12:10:40;;;;;;;8.50;2.53;;;11.20;99.90;;;;;;5050866;28;20021;-74
2022/04/07 12:13:07;;;;;;;14.45;3.53;;;11.20;99.90;;;;;;5051970;28;20033;-73
2022/04/07 12:15:36;;;;;;;18.33;2.85;;;11.30;99.90;;;;;;5053204;28;20053;-73
2022/04/07 12:18:04;;;;;;;11.95;2.10;;;11.20;99.90;;;;;;5062421;28;20025;-73
2022/04/07 12:20:30;;;;;;;5.80;0.88;;;11.40;99.90;;;;;;5051553;28;20029;-73
2022/04/07 12:23:13;;;;;;;9.25;2.38;;;11.40;99.90;;;;;;5056232;28;20025;-73
2022/04/07 12:25:41;;;;;;;13.55;2.10;;;11.60;99.90;;;;;;5062881;28;20108;-73
2022/04/07 12:28:07;;;;;;;12.35;2.38;;;11.70;99.90;;;;;;5068551;28;20037;-73
2022/04/07 12:30:46;;;;;;;9.32;1.92;;;11.90;99.90;;;;;;5075076;28;20040;-73
2022/04/07 12:33:45;;;;;;;8.07;1.45;;;11.80;99.90;;;;;;5076370;28;20021;-73
2022/04/07 12:36:13;;;;;;;7.93;1.73;;;11.70;99.90;;;;;;5058805;28;20100;-73
2022/04/07 12:38:40;;;;;;;13.27;2.95;;;11.70;99.90;;;;;;5053748;28;20075;-72
2022/04/07 12:41:14;;;;;;;17.33;2.05;;;11.70;99.90;;;;;;5054795;28;20029;-72
2022/04/07 12:43:50;;;;;;;7.55;1.02;;;11.90;99.90;;;;;;5054844;28;20033;-72
2022/04/07 12:46:16;;;;;;;11.43;1.67;;;12.00;99.90;;;;;;5072039;28;20485;-73
2022/04/07 12:49:02;;;;;;;9.15;1.77;;;11.90;99.90;;;;;;5055731;28;20082;-73